Time;durP1;ratioP1;P1;durP2;ratioP2;P2;SDS_P1;SDS_P2;PMS_P1;PMS_P2;Temp;Humidity;BMP_temperature;BMP_pressure;BME280_temperature;BME280_humidity;BME280_pressure;Samples;Min_cycle;Max_cycle;Signal;HPM_P1;HPM_P2
2023/12/30 00:02:14;;;;;;;;;13.50;12.75;;;;;-143.90;85.24;75294.19;4884637;28;104226;-74
2023/12/30 00:04:41;;;;;;;;;10.00;8.00;;;;;-143.90;84.99;75300.41;4884126;28;102076;-73
2023/12/30 00:07:08;;;;;;;;;13.25;8.75;;;;;-143.90;84.82;75298.34;4874813;28;101958;-74
2023/12/30 00:09:35;;;;;;;;;10.00;8.75;;;;;-143.90;85.01;75300.41;4897212;28;102068;-74
2023/12/30 00:12:02;;;;;;;;;12.25;9.00;;;;;-143.90;84.96;75290.06;4887454;28;108893;-73
2023/12/30 00:14:29;;;;;;;;;10.75;8.00;;;;;-143.90;84.92;75300.41;4882154;28;102515;-73
2023/12/30 00:16:55;;;;;;;;;10.75;10.00;;;;;-143.90;85.20;75300.41;4885149;28;102230;-74
2023/12/30 00:19:22;;;;;;;;;8.50;8.00;;;;;-143.90;84.51;75304.53;4880581;28;102990;-73
2023/12/30 00:21:49;;;;;;;;;10.75;9.00;;;;;-143.90;84.66;75304.53;4882029;28;104434;-73
2023/12/30 00:24:16;;;;;;;;;9.00;7.25;;;;;-143.90;84.36;75296.25;4885048;28;102675;-73
2023/12/30 00:26:43;;;;;;;;;7.00;7.00;;;;;-143.90;84.39;75285.94;4885993;28;102208;-73
2023/12/30 00:29:11;;;;;;;;;12.75;8.00;;;;;-143.90;84.25;75298.34;4876055;28;103243;-73
2023/12/30 00:31:38;;;;;;;;;9.00;7.50;;;;;-143.90;83.92;75296.25;4879906;28;104075;-73
2023/12/30 00:34:05;;;;;;;;;6.50;6.00;;;;;-143.90;83.89;75296.25;4887984;28;102070;-73
2023/12/30 00:36:31;;;;;;;;;9.75;7.75;;;;;-143.90;83.54;75296.25;4883197;28;102683;-73
2023/12/30 00:38:58;;;;;;;;;9.25;7.00;;;;;-143.90;83.61;75281.78;4881849;28;102320;-73
2023/12/30 00:41:26;;;;;;;;;13.50;9.00;;;;;-143.90;83.57;75279.72;4879287;28;104206;-73
2023/12/30 00:43:53;;;;;;;;;6.75;6.50;;;;;-143.90;83.64;75283.84;4885734;28;102327;-73
2023/12/30 00:46:21;;;;;;;;;7.75;7.00;;;;;-143.90;83.51;75298.34;4880873;28;109784;-73
2023/12/30 00:48:48;;;;;;;;;7.50;7.00;;;;;-143.90;83.67;75300.41;4887595;28;102455;-72
2023/12/30 00:51:23;;;;;;;;;7.25;6.00;;;;;-143.90;84.02;75296.25;4878505;28;104417;-73
2023/12/30 00:53:50;;;;;;;;;7.00;7.00;;;;;-143.90;83.76;75302.47;4884831;28;102480;-73
2023/12/30 00:56:17;;;;;;;;;9.25;8.50;;;;;-143.90;84.06;75310.75;4884596;28;102471;-73
2023/12/30 00:58:43;;;;;;;;;10.25;6.75;;;;;-143.90;84.00;75304.53;4884647;28;102440;-74
2023/12/30 01:01:10;;;;;;;;;4.75;4.25;;;;;-143.90;84.04;75312.81;4873565;28;104448;-74
2023/12/30 01:03:39;;;;;;;;;7.00;6.00;;;;;-143.90;84.14;75312.81;4884930;28;102498;-74
2023/12/30 01:06:06;;;;;;;;;6.50;4.00;;;;;-143.90;84.66;75306.59;4885042;28;102135;-73
2023/12/30 01:08:33;;;;;;;;;5.25;3.75;;;;;-143.90;84.62;75308.66;4883766;28;103060;-74
2023/12/30 01:11:00;;;;;;;;;6.00;4.00;;;;;-143.90;84.58;75308.66;4882019;28;108743;-73
2023/12/30 01:13:27;;;;;;;;;4.50;4.00;;;;;-143.90;84.65;75308.66;4878641;28;102517;-74
2023/12/30 01:15:53;;;;;;;;;7.75;5.00;;;;;-143.90;85.07;75312.81;4888356;28;102919;-73
2023/12/30 01:18:20;;;;;;;;;4.25;4.00;;;;;-143.90;85.12;75312.81;4882886;28;102985;-74
2023/12/30 01:20:47;;;;;;;;;4.00;4.00;;;;;-143.90;85.83;75314.88;4884214;28;103957;-73
2023/12/30 01:23:14;;;;;;;;;4.75;3.25;;;;;-143.90;86.12;75321.06;4877043;28;102066;-74
2023/12/30 01:25:42;;;;;;;;;3.00;3.00;;;;;-143.90;85.82;75321.06;4884108;28;103707;-73
2023/12/30 01:28:08;;;;;;;;;3.00;3.00;;;;;-143.90;85.96;75319.00;4891864;28;102384;-73
2023/12/30 01:30:38;;;;;;;;;5.25;4.50;;;;;-143.90;86.15;75310.75;4863663;28;104257;-73
2023/12/30 01:33:05;;;;;;;;;5.00;5.00;;;;;-143.90;86.28;75302.47;4880026;28;104468;-73
2023/12/30 01:35:32;;;;;;;;;6.00;4.00;;;;;-143.90;86.15;75308.66;4865238;28;104230;-74
2023/12/30 01:37:59;;;;;;;;;5.75;4.00;;;;;-143.90;86.64;75304.53;4885890;28;102663;-74
2023/12/30 01:40:29;;;;;;;;;6.50;6.50;;;;;-143.90;86.70;75298.34;4863324;28;104119;-73
2023/12/30 01:42:58;;;;;;;;;3.75;3.75;;;;;-143.90;86.21;75296.25;4882385;28;102797;-74
2023/12/30 01:45:25;;;;;;;;;4.00;4.00;;;;;-143.90;86.21;75296.25;4886301;28;101990;-73
2023/12/30 01:47:52;;;;;;;;;7.00;5.50;;;;;-143.90;86.28;75281.78;4886930;28;102577;-73
2023/12/30 01:50:21;;;;;;;;;6.50;5.50;;;;;-143.90;85.90;75279.72;4882389;28;104005;-73
2023/12/30 01:52:48;;;;;;;;;5.25;4.50;;;;;-143.90;85.84;75275.59;4884999;28;102728;-73
2023/12/30 01:55:17;;;;;;;;;5.50;4.75;;;;;-143.90;85.72;75281.78;4874086;28;102340;-73
2023/12/30 01:57:44;;;;;;;;;6.25;3.50;;;;;-143.90;85.90;75275.59;4880628;28;102371;-73
2023/12/30 02:00:19;;;;;;;;;5.00;5.00;;;;;-143.90;85.84;75277.66;4877310;28;104025;-74
2023/12/30 02:02:49;;;;;;;;;6.00;4.00;;;;;-143.90;85.96;75277.66;4885217;28;102521;-74
2023/12/30 02:05:17;;;;;;;;;5.25;5.00;;;;;-143.90;85.76;75271.47;4874586;28;102304;-74
2023/12/30 02:07:45;;;;;;;;;6.00;6.00;;;;;-143.90;86.03;75267.31;4886298;28;104979;-74
2023/12/30 02:10:12;;;;;;;;;4.00;3.25;;;;;-143.90;85.74;75269.38;4883724;28;104350;-75
2023/12/30 02:12:39;;;;;;;;;6.25;3.50;;;;;-143.90;85.84;75263.19;4883909;28;102512;-73
2023/12/30 02:15:13;;;;;;;;;4.25;4.25;;;;;-143.90;85.63;75252.84;4878002;28;102481;-74
2023/12/30 02:17:40;;;;;;;;;4.00;4.00;;;;;-143.90;85.78;75242.50;4878993;28;102477;-74
2023/12/30 02:20:08;;;;;;;;;4.00;3.50;;;;;-143.90;85.49;75234.25;4882889;28;103994;-74
2023/12/30 02:22:34;;;;;;;;;3.25;2.00;;;;;-143.90;84.88;75228.03;4882818;28;103328;-73
2023/12/30 02:25:02;;;;;;;;;3.00;3.00;;;;;-143.90;84.77;75225.97;4877101;28;102177;-73
2023/12/30 02:27:29;;;;;;;;;4.75;3.75;;;;;-143.90;84.66;75221.84;4884485;28;102144;-74
2023/12/30 02:29:56;;;;;;;;;2.00;2.00;;;;;-143.90;84.64;75213.56;4878567;28;104614;-74
2023/12/30 02:32:22;;;;;;;;;6.00;4.00;;;;;-143.90;84.41;75209.44;4884226;28;102502;-74
2023/12/30 02:34:49;;;;;;;;;4.00;3.75;;;;;-143.90;84.40;75201.16;4878486;28;102401;-74
2023/12/30 02:37:16;;;;;;;;;3.25;3.25;;;;;-143.90;84.29;75203.22;4873249;28;101842;-73
2023/12/30 02:39:42;;;;;;;;;5.25;2.00;;;;;-143.90;83.69;75197.03;4877331;28;104905;-74
2023/12/30 02:42:09;;;;;;;;;3.50;2.75;;;;;-143.90;83.48;75203.22;4884124;28;102666;-73
2023/12/30 02:44:36;;;;;;;;;6.50;6.25;;;;;-143.90;83.56;75201.16;4887901;28;102265;-73
2023/12/30 02:47:03;;;;;;;;;3.00;3.00;;;;;-143.90;83.43;75203.22;4882520;28;104538;-73
2023/12/30 02:49:32;;;;;;;;;4.25;4.00;;;;;-143.90;83.19;75197.03;4878298;28;104419;-73
2023/12/30 02:51:59;;;;;;;;;3.50;3.00;;;;;-143.90;82.86;75197.03;4892131;28;102078;-73
2023/12/30 02:54:27;;;;;;;;;4.00;3.00;;;;;-143.90;82.69;75188.75;4885508;28;102028;-75
2023/12/30 02:56:54;;;;;;;;;5.25;3.00;;;;;-143.90;82.86;75192.91;4901621;28;102254;-75
2023/12/30 02:59:20;;;;;;;;;1.00;1.00;;;;;-143.90;83.23;75192.91;4877796;28;104020;-74
2023/12/30 03:01:47;;;;;;;;;8.00;4.00;;;;;-143.90;82.86;75188.75;4888404;28;102414;-73
2023/12/30 03:04:14;;;;;;;;;3.00;3.00;;;;;-143.90;82.69;75178.41;4885420;28;102384;-73
2023/12/30 03:06:40;;;;;;;;;4.00;4.00;;;;;-143.90;82.88;75188.75;4886642;28;102505;-75
2023/12/30 03:09:07;;;;;;;;;3.75;3.25;;;;;-143.90;82.88;75188.75;4880445;28;104201;-74
2023/12/30 03:11:33;;;;;;;;;3.00;3.00;;;;;-143.90;82.76;75188.75;4885699;28;104691;-74
2023/12/30 03:14:00;;;;;;;;;3.50;3.00;;;;;-143.90;82.25;75180.50;4884649;28;102237;-74
2023/12/30 03:16:27;;;;;;;;;5.25;3.00;;;;;-143.90;82.14;75182.56;4888721;28;102467;-74
2023/12/30 03:18:55;;;;;;;;;3.75;3.00;;;;;-143.90;82.10;75186.69;4884616;28;104171;-74
2023/12/30 03:21:22;;;;;;;;;5.50;3.75;;;;;-143.90;82.41;75190.81;4881411;28;102316;-73
2023/12/30 03:23:49;;;;;;;;;5.25;3.75;;;;;-143.90;81.93;75180.50;4888476;28;102035;-74
2023/12/30 03:26:15;;;;;;;;;4.50;4.50;;;;;-143.90;81.53;75178.41;4888247;28;102321;-74
2023/12/30 03:28:43;;;;;;;;;3.75;3.00;;;;;-143.90;81.68;75180.50;4885741;28;104191;-74
2023/12/30 03:31:28;;;;;;;;;7.00;3.75;;;;;-143.90;81.42;75180.50;4878354;28;104051;-74
2023/12/30 03:33:56;;;;;;;;;4.50;3.00;;;;;-143.90;81.25;75180.50;4888687;28;102542;-74
2023/12/30 03:36:23;;;;;;;;;3.50;3.00;;;;;-143.90;81.16;75174.28;4883355;28;104449;-74
2023/12/30 03:38:52;;;;;;;;;7.00;5.00;;;;;-143.90;80.95;75170.16;4884557;28;104178;-74
2023/12/30 03:41:18;;;;;;;;;5.50;4.50;;;;;-143.90;80.39;75172.22;4875711;28;103195;-74
2023/12/30 03:43:45;;;;;;;;;4.25;4.00;;;;;-143.90;80.61;75170.16;4882684;28;102188;-73
2023/12/30 03:46:12;;;;;;;;;4.00;4.00;;;;;-143.90;79.89;75163.94;4887164;28;102339;-74
2023/12/30 03:48:39;;;;;;;;;2.50;2.00;;;;;-143.90;79.46;75151.53;4882617;28;104165;-73
2023/12/30 03:51:05;;;;;;;;;3.50;3.00;;;;;-143.90;79.39;75145.34;4878185;28;101984;-74
2023/12/30 03:53:33;;;;;;;;;4.50;4.00;;;;;-143.90;78.73;75143.28;4883941;28;103821;-74
2023/12/30 03:56:00;;;;;;;;;3.00;2.50;;;;;-143.90;78.33;75147.41;4884620;28;102405;-74
2023/12/30 03:58:27;;;;;;;;;3.75;3.00;;;;;-143.90;78.71;75145.34;4886227;28;104323;-75
2023/12/30 04:00:54;;;;;;;;;5.00;5.00;;;;;-143.90;78.71;75147.41;4885109;28;102132;-74
2023/12/30 04:03:21;;;;;;;;;5.75;4.50;;;;;-143.90;78.26;75132.94;4876564;28;102006;-73
2023/12/30 04:05:48;;;;;;;;;3.00;3.00;;;;;-143.90;78.33;75153.63;4886853;28;105299;-72
2023/12/30 04:08:15;;;;;;;;;4.00;3.00;;;;;-143.90;78.35;75147.41;4883023;28;104269;-73
2023/12/30 04:10:41;;;;;;;;;3.25;2.75;;;;;-143.90;78.13;75159.81;4885340;28;102411;-73
2023/12/30 04:13:09;;;;;;;;;4.00;3.00;;;;;-143.90;78.53;75172.22;4877815;28;102716;-73
2023/12/30 04:15:37;;;;;;;;;3.00;3.00;;;;;-143.90;78.50;75174.28;4868058;28;102437;-73
2023/12/30 04:18:04;;;;;;;;;3.00;2.25;;;;;-143.90;78.08;75176.34;4884828;28;108903;-73
2023/12/30 04:20:31;;;;;;;;;3.75;3.50;;;;;-143.90;78.14;75176.34;4885417;28;102436;-72
2023/12/30 04:22:58;;;;;;;;;2.75;2.75;;;;;-143.90;78.04;75176.34;4881551;28;104581;-74
2023/12/30 04:25:25;;;;;;;;;2.75;2.75;;;;;-143.90;78.11;75176.34;4881296;28;102405;-73
2023/12/30 04:27:52;;;;;;;;;3.00;3.00;;;;;-143.90;77.58;75192.91;4887177;28;104016;-73
2023/12/30 04:30:19;;;;;;;;;3.00;3.00;;;;;-143.90;77.78;75207.38;4883727;28;102913;-73
2023/12/30 04:32:46;;;;;;;;;6.00;5.00;;;;;-143.90;77.73;75209.44;4883192;28;102506;-73
2023/12/30 04:35:12;;;;;;;;;4.00;4.00;;;;;-143.90;77.80;75211.50;4877319;28;102478;-74
2023/12/30 04:37:39;;;;;;;;;5.00;5.00;;;;;-143.90;77.14;75192.91;4886304;28;104120;-74
2023/12/30 04:40:06;;;;;;;;;7.00;5.00;;;;;-143.90;77.11;75188.75;4887578;28;102138;-75
2023/12/30 04:42:33;;;;;;;;;4.25;4.00;;;;;-143.90;76.54;75182.56;4886964;28;102305;-73
2023/12/30 04:45:00;;;;;;;;;7.00;6.00;;;;;-143.90;76.39;75199.09;4880100;28;104201;-74
2023/12/30 04:47:26;;;;;;;;;3.25;3.00;;;;;-143.90;75.96;75188.75;4896334;28;103971;-73
2023/12/30 04:49:53;;;;;;;;;5.25;4.25;;;;;-143.90;76.25;75188.75;4884357;28;104692;-73
2023/12/30 04:52:20;;;;;;;;;4.75;3.75;;;;;-143.90;75.75;75188.75;4885305;28;102324;-73
2023/12/30 04:54:46;;;;;;;;;2.25;2.25;;;;;-143.90;75.59;75192.91;4882904;28;102239;-73
2023/12/30 04:57:13;;;;;;;;;6.50;4.00;;;;;-143.90;75.81;75194.97;4880282;28;104075;-73
2023/12/30 04:59:39;;;;;;;;;4.00;4.00;;;;;-143.90;76.04;75197.03;4883233;28;102224;-73
2023/12/30 05:02:06;;;;;;;;;4.00;3.00;;;;;-143.90;76.01;75197.03;4892850;28;102066;-74
2023/12/30 05:04:33;;;;;;;;;3.25;3.00;;;;;-143.90;75.42;75197.03;4888285;28;102471;-73
2023/12/30 05:07:00;;;;;;;;;2.75;2.00;;;;;-143.90;75.82;75192.91;4883117;28;104148;-74
2023/12/30 05:09:27;;;;;;;;;3.00;2.75;;;;;-143.90;75.20;75199.09;4880481;28;102237;-73
2023/12/30 05:11:54;;;;;;;;;4.00;3.50;;;;;-143.90;74.61;75188.75;4885965;28;102571;-74
2023/12/30 05:14:21;;;;;;;;;3.25;3.00;;;;;-143.90;74.60;75188.75;4883205;28;102282;-73
2023/12/30 05:16:47;;;;;;;;;3.25;3.25;;;;;-143.90;74.69;75199.09;4886040;28;104028;-74
2023/12/30 05:19:14;;;;;;;;;3.50;3.00;;;;;-143.90;74.36;75194.97;4878619;28;104352;-74
2023/12/30 05:21:41;;;;;;;;;3.75;3.00;;;;;-143.90;74.72;75197.03;4885081;28;102121;-74
2023/12/30 05:24:08;;;;;;;;;4.00;3.25;;;;;-143.90;74.03;75192.91;4888571;28;108120;-74
2023/12/30 05:26:35;;;;;;;;;4.00;3.25;;;;;-143.90;74.14;75192.91;4880909;28;108898;-74
2023/12/30 05:29:01;;;;;;;;;4.00;4.00;;;;;-143.90;73.84;75188.75;4875000;28;102407;-75
2023/12/30 05:31:28;;;;;;;;;4.00;4.00;;;;;-143.90;74.25;75197.03;4884630;28;102410;-74
2023/12/30 05:33:55;;;;;;;;;5.25;4.00;;;;;-143.90;74.15;75201.16;4886756;28;102012;-75
2023/12/30 05:36:22;;;;;;;;;4.00;3.50;;;;;-143.90;73.98;75197.03;4884874;28;104291;-74
2023/12/30 05:38:48;;;;;;;;;3.75;3.75;;;;;-143.90;74.10;75209.44;4882859;28;102386;-73
2023/12/30 05:41:15;;;;;;;;;3.25;2.75;;;;;-143.90;73.91;75213.56;4872033;28;102255;-73
2023/12/30 05:43:42;;;;;;;;;5.00;4.00;;;;;-143.90;73.88;75213.56;4886737;28;102382;-74
2023/12/30 05:46:15;;;;;;;;;3.00;3.00;;;;;-143.90;74.09;75225.97;4885495;28;104281;-73
2023/12/30 05:48:43;;;;;;;;;3.50;3.00;;;;;-143.90;74.43;75230.09;4883583;28;102157;-74
2023/12/30 05:51:10;;;;;;;;;3.75;3.75;;;;;-143.90;74.13;75230.09;4874046;28;101952;-74
2023/12/30 05:53:38;;;;;;;;;4.50;3.75;;;;;-143.90;74.38;75240.44;4886298;28;103238;-73
2023/12/30 05:56:04;;;;;;;;;3.00;3.00;;;;;-143.90;74.58;75232.19;4880518;28;108985;-73
2023/12/30 05:58:31;;;;;;;;;6.00;3.00;;;;;-143.90;74.53;75238.38;4883834;28;102436;-72
2023/12/30 06:00:58;;;;;;;;;4.75;4.25;;;;;-143.90;75.18;75244.59;4883399;28;104708;-73
2023/12/30 06:03:25;;;;;;;;;4.00;4.00;;;;;-143.90;74.85;75246.66;4880606;28;102122;-73
2023/12/30 06:05:52;;;;;;;;;5.00;4.00;;;;;-143.90;74.83;75246.66;4880596;28;104216;-74
2023/12/30 06:08:19;;;;;;;;;5.50;4.00;;;;;-143.90;74.56;75250.78;4880301;28;102640;-73
2023/12/30 06:10:49;;;;;;;;;5.25;4.25;;;;;-143.90;74.89;75252.84;4886534;28;102212;-74
2023/12/30 06:13:16;;;;;;;;;7.00;5.00;;;;;-143.90;75.26;75248.72;4873493;28;102288;-73
2023/12/30 06:15:48;;;;;;;;;6.00;6.00;;;;;-143.90;74.71;75246.66;4883374;28;104138;-73
2023/12/30 06:18:15;;;;;;;;;6.75;4.00;;;;;-143.90;74.62;75238.38;4881772;28;103097;-73
2023/12/30 06:20:46;;;;;;;;;4.75;4.75;;;;;-143.90;74.16;75238.38;4881496;28;102352;-74
2023/12/30 06:23:13;;;;;;;;;5.50;3.00;;;;;-143.90;73.98;75234.25;4872638;28;102348;-74
2023/12/30 06:25:40;;;;;;;;;4.00;4.00;;;;;-143.90;74.21;75234.25;4885385;28;104130;-74
2023/12/30 06:28:07;;;;;;;;;3.00;3.00;;;;;-143.90;74.55;75238.38;4882142;28;103460;-73
2023/12/30 06:30:34;;;;;;;;;7.25;4.75;;;;;-143.90;74.43;75254.91;4880798;28;102553;-73
2023/12/30 06:33:06;;;;;;;;;2.00;2.00;;;;;-143.90;74.51;75250.78;4878562;28;102387;-73
2023/12/30 06:35:34;;;;;;;;;3.75;3.00;;;;;-143.90;74.84;75256.97;4884321;28;108736;-73
2023/12/30 06:38:01;;;;;;;;;6.25;3.00;;;;;-143.90;74.83;75259.06;4885787;28;102280;-75
2023/12/30 06:40:28;;;;;;;;;3.00;3.00;;;;;-143.90;74.48;75250.78;4889604;28;102040;-73
2023/12/30 06:42:55;;;;;;;;;2.00;2.00;;;;;-143.90;74.76;75250.78;4888343;28;102516;-75
2023/12/30 06:45:21;;;;;;;;;1.25;1.25;;;;;-143.90;74.65;75250.78;4787575;28;104145;-74
2023/12/30 06:47:48;;;;;;;;;6.50;4.25;;;;;-143.90;74.39;75246.66;4884260;28;102651;-73
2023/12/30 06:50:15;;;;;;;;;4.00;4.00;;;;;-143.90;74.18;75250.78;4891087;28;102628;-75
2023/12/30 06:52:46;;;;;;;;;3.00;3.00;;;;;-143.90;74.30;75242.50;4888049;28;102940;-73
2023/12/30 06:55:14;;;;;;;;;3.00;3.00;;;;;-143.90;74.55;75248.72;4879458;28;104095;-75
2023/12/30 06:57:51;;;;;;;;;1.00;1.00;;;;;-143.90;74.25;75242.50;4887759;28;102408;-75
2023/12/30 07:00:20;;;;;;;;;3.75;2.75;;;;;-143.90;74.25;75250.78;4888485;28;104942;-77
2023/12/30 07:02:47;;;;;;;;;4.25;2.50;;;;;-143.90;74.06;75238.38;4893192;28;101897;-73
2023/12/30 07:05:14;;;;;;;;;8.00;6.25;;;;;-143.90;74.13;75238.38;4872193;28;105453;-75
2023/12/30 07:07:40;;;;;;;;;6.00;4.00;;;;;-143.90;74.33;75228.03;4889097;28;101917;-73
2023/12/30 07:10:07;;;;;;;;;5.50;4.00;;;;;-143.90;73.94;75225.97;4889101;28;102474;-74
2023/12/30 07:12:34;;;;;;;;;3.50;3.00;;;;;-143.90;73.55;75225.97;4890037;28;103297;-74
2023/12/30 07:15:01;;;;;;;;;5.25;2.50;;;;;-143.90;73.98;75234.25;4880950;28;104376;-74
2023/12/30 07:17:28;;;;;;;;;4.50;4.00;;;;;-143.90;74.02;75234.25;4881404;28;102504;-74
2023/12/30 07:19:55;;;;;;;;;8.75;7.25;;;;;-143.90;74.70;75238.38;4886113;28;102472;-74
2023/12/30 07:22:22;;;;;;;;;8.25;6.25;;;;;-143.90;74.33;75238.38;4891931;28;102300;-74
2023/12/30 07:24:49;;;;;;;;;6.75;5.25;;;;;-143.90;73.98;75234.25;4885313;28;104292;-74
2023/12/30 07:27:15;;;;;;;;;4.00;3.00;;;;;-143.90;74.31;75242.50;4878377;28;102436;-74
2023/12/30 07:29:42;;;;;;;;;4.00;3.00;;;;;-143.90;74.42;75238.38;4886298;28;102212;-74
2023/12/30 07:32:08;;;;;;;;;3.00;3.00;;;;;-143.90;74.23;75238.38;4891620;28;102172;-74
2023/12/30 07:34:35;;;;;;;;;6.00;4.00;;;;;-143.90;74.22;75236.31;4886492;28;104254;-73
2023/12/30 07:37:02;;;;;;;;;4.25;3.00;;;;;-143.90;74.55;75234.25;4883574;28;102510;-73
2023/12/30 07:39:29;;;;;;;;;3.50;2.00;;;;;-143.90;74.41;75232.19;4882845;28;102018;-74
2023/12/30 07:41:56;;;;;;;;;3.25;3.00;;;;;-143.90;74.19;75234.25;4888301;28;101838;-75
2023/12/30 07:44:22;;;;;;;;;3.00;3.00;;;;;-143.90;74.24;75225.97;4886329;28;103800;-73
2023/12/30 07:46:49;;;;;;;;;4.00;3.00;;;;;-143.90;74.10;75228.03;4883487;28;103409;-73
2023/12/30 07:49:17;;;;;;;;;6.50;6.00;;;;;-143.90;74.06;75217.69;4875011;28;103145;-74
2023/12/30 07:51:44;;;;;;;;;4.00;3.00;;;;;-143.90;74.56;75230.09;4887963;28;103533;-73
2023/12/30 07:54:12;;;;;;;;;5.00;4.00;;;;;-143.90;74.34;75217.69;4885421;28;104127;-75
2023/12/30 07:56:39;;;;;;;;;5.50;4.00;;;;;-143.90;74.33;75221.84;4885865;28;103352;-74
2023/12/30 07:59:05;;;;;;;;;6.50;4.75;;;;;-143.90;73.93;75211.50;4877905;28;103560;-74
2023/12/30 08:01:32;;;;;;;;;5.25;5.25;;;;;-143.90;74.11;75203.22;4881015;28;101979;-74
2023/12/30 08:03:59;;;;;;;;;6.25;4.00;;;;;-143.90;73.87;75205.28;4887119;28;103870;-73
2023/12/30 08:06:26;;;;;;;;;3.75;3.00;;;;;-143.90;73.90;75201.16;4868177;28;102047;-75
2023/12/30 08:08:53;;;;;;;;;4.75;4.50;;;;;-143.90;74.03;75205.28;4884795;28;102389;-75
2023/12/30 08:11:19;;;;;;;;;3.25;3.25;;;;;-143.90;73.77;75207.38;4880149;28;102888;-76
2023/12/30 08:13:46;;;;;;;;;5.25;4.00;;;;;-143.90;74.07;75205.28;4884992;28;104210;-75
2023/12/30 08:16:13;;;;;;;;;7.00;6.00;;;;;-143.90;74.30;75219.78;4882612;28;103919;-75
2023/12/30 08:18:39;;;;;;;;;4.00;3.50;;;;;-143.90;73.89;75203.22;4891469;28;104638;-74
2023/12/30 08:21:06;;;;;;;;;7.25;5.25;;;;;-143.90;74.17;75201.16;4872747;28;102738;-75
2023/12/30 08:23:33;;;;;;;;;6.75;4.50;;;;;-143.90;73.75;75207.38;4885951;28;103844;-74
2023/12/30 08:25:59;;;;;;;;;6.00;3.75;;;;;-143.90;73.92;75221.84;4884537;28;101949;-75
2023/12/30 08:28:26;;;;;;;;;4.00;4.00;;;;;-143.90;74.01;75213.56;4885299;28;102141;-73
2023/12/30 08:30:54;;;;;;;;;4.00;4.00;;;;;-143.90;73.84;75205.28;4884161;28;101914;-74
2023/12/30 08:33:21;;;;;;;;;6.00;6.00;;;;;-143.90;73.13;75203.22;4869357;28;107897;-74
2023/12/30 08:35:49;;;;;;;;;4.75;4.00;;;;;-143.90;72.76;75194.97;4882588;28;102259;-74
2023/12/30 08:38:19;;;;;;;;;3.50;2.50;;;;;-143.90;72.75;75188.75;4882335;28;102499;-74
2023/12/30 08:40:45;;;;;;;;;5.50;4.00;;;;;-143.90;72.42;75180.50;4881673;28;102372;-74
2023/12/30 08:43:13;;;;;;;;;4.00;4.00;;;;;-143.90;72.31;75180.50;4875951;28;111576;-74
2023/12/30 08:45:40;;;;;;;;;9.00;6.50;;;;;-143.90;72.38;75184.63;4885742;28;102617;-76
2023/12/30 08:48:06;;;;;;;;;4.00;4.00;;;;;-143.90;71.52;75170.16;4886381;28;102224;-74
2023/12/30 08:50:33;;;;;;;;;3.25;3.25;;;;;-143.90;71.13;75151.53;4886537;28;102332;-75
2023/12/30 08:53:00;;;;;;;;;4.00;4.00;;;;;-143.90;71.19;75149.47;4881936;28;103542;-73
2023/12/30 08:55:27;;;;;;;;;4.25;3.25;;;;;-143.90;70.32;75132.94;4880685;28;103338;-74
2023/12/30 08:57:54;;;;;;;;;4.00;4.00;;;;;-143.90;69.81;75132.94;4884422;28;102396;-74
2023/12/30 09:00:21;;;;;;;;;4.25;4.25;;;;;-143.90;69.22;75143.28;4888547;28;102081;-73
2023/12/30 09:02:48;;;;;;;;;6.50;5.75;;;;;-143.90;70.07;75143.28;4882599;28;104007;-74
2023/12/30 09:05:18;;;;;;;;;9.00;8.00;;;;;-143.90;69.92;75149.47;4878092;28;102298;-73
2023/12/30 09:07:48;;;;;;;;;6.75;4.25;;;;;-143.90;69.75;75143.28;4886105;28;102524;-74
2023/12/30 09:10:17;;;;;;;;;4.50;4.25;;;;;-143.90;69.15;75135.00;4888032;28;101885;-74
2023/12/30 09:12:45;;;;;;;;;7.25;4.50;;;;;-143.90;68.82;75122.59;4883969;28;108806;-74
2023/12/30 09:15:11;;;;;;;;;6.50;5.00;;;;;-143.90;68.18;75104.00;4875679;28;102442;-74
2023/12/30 09:17:38;;;;;;;;;4.00;4.00;;;;;-143.90;68.03;75097.78;4868972;28;102057;-73
2023/12/30 09:20:06;;;;;;;;;4.25;4.00;;;;;-143.90;66.92;75062.66;4884295;28;102614;-74
2023/12/30 09:22:32;;;;;;;;;4.00;3.00;;;;;-143.90;65.58;75048.19;4878636;28;104028;-73
2023/12/30 09:25:00;;;;;;;;;3.75;3.75;;;;;-143.90;65.66;75046.09;4881552;28;102435;-73
2023/12/30 09:27:26;;;;;;;;;6.75;4.00;;;;;-143.90;64.88;75019.22;4879433;28;102137;-75
2023/12/30 09:29:53;;;;;;;;;4.25;4.00;;;;;-143.90;63.74;75010.97;4889138;28;102167;-74
2023/12/30 09:32:20;;;;;;;;;4.00;4.00;;;;;-143.90;64.07;75004.75;4883392;28;104172;-74
2023/12/30 09:34:47;;;;;;;;;3.50;3.50;;;;;-143.90;63.81;75023.38;4882045;28;101991;-74
2023/12/30 09:37:14;;;;;;;;;4.75;4.00;;;;;-143.90;63.80;75033.72;4878005;28;102327;-74
2023/12/30 09:39:42;;;;;;;;;5.00;4.00;;;;;-143.90;65.05;75056.44;4880956;28;102235;-73
2023/12/30 09:42:09;;;;;;;;;4.50;3.75;;;;;-143.90;65.51;75060.59;4884057;28;104195;-74
2023/12/30 09:44:36;;;;;;;;;3.25;3.25;;;;;-143.90;65.22;75060.59;4883251;28;104739;-73
2023/12/30 09:47:07;;;;;;;;;4.25;3.00;;;;;-143.90;64.89;75056.44;4879169;28;103614;-73
2023/12/30 09:49:35;;;;;;;;;4.25;3.00;;;;;-143.90;64.63;75068.84;4898505;28;102034;-73
2023/12/30 09:52:05;;;;;;;;;4.00;2.00;;;;;-143.90;65.08;75064.72;4884068;28;103991;-74
2023/12/30 09:54:32;;;;;;;;;3.50;2.00;;;;;-143.90;65.22;75072.97;4885001;28;102567;-74
2023/12/30 09:57:14;;;;;;;;;3.50;3.00;;;;;-143.90;64.61;75089.53;4881487;28;102660;-74
2023/12/30 09:59:41;;;;;;;;;3.00;2.75;;;;;-143.90;65.57;75085.38;4882471;28;102406;-73
2023/12/30 10:02:09;;;;;;;;;6.00;4.25;;;;;-143.90;66.07;75093.66;4883396;28;104172;-75
2023/12/30 10:04:37;;;;;;;;;4.00;2.50;;;;;-143.90;65.54;75068.84;4880999;28;105946;-75
2023/12/30 10:07:04;;;;;;;;;4.25;4.00;;;;;-143.90;65.71;75072.97;4877450;28;102246;-73
2023/12/30 10:09:31;;;;;;;;;4.00;4.00;;;;;-143.90;65.47;75085.38;4883435;28;102579;-74
2023/12/30 10:11:58;;;;;;;;;3.50;2.00;;;;;-143.90;64.64;75056.44;4880253;28;104094;-75
2023/12/30 10:14:25;;;;;;;;;3.75;2.00;;;;;-143.90;63.29;75033.72;4883573;28;102277;-74
2023/12/30 10:16:52;;;;;;;;;5.00;4.00;;;;;-143.90;63.73;75015.09;4879114;28;102384;-73
2023/12/30 10:19:18;;;;;;;;;7.00;5.00;;;;;-143.90;62.62;75031.63;4876316;28;102547;-75
2023/12/30 10:21:45;;;;;;;;;1.00;1.00;;;;;-143.90;66.20;75044.03;4879365;28;103999;-76
2023/12/30 10:24:14;;;;;;;;;6.50;4.50;;;;;-143.90;69.48;75118.47;4889690;28;102371;-76
2023/12/30 10:26:42;;;;;;;;;2.00;2.00;;;;;-143.90;70.77;75139.16;4888358;28;102442;-75
2023/12/30 10:29:10;;;;;;;;;4.00;3.00;;;;;-143.90;74.36;75168.09;4882707;28;102463;-74
2023/12/30 10:31:37;;;;;;;;;3.50;3.00;;;;;-143.90;81.96;75240.44;4888950;28;103982;-75
2023/12/30 10:34:05;;;;;;;;;5.25;5.00;;;;;-143.90;84.66;75269.38;4889790;28;103360;-74
2023/12/30 10:36:32;;;;;;;;;4.25;3.50;;;;;-143.90;90.01;75302.47;4886449;28;102228;-75
2023/12/30 10:39:03;;;;;;;;;11.50;9.00;;;;;-143.90;100.00;75441.00;4884518;28;102462;-76
2023/12/30 10:41:30;;;;;;;;;9.75;8.00;;;;;-143.90;100.00;75478.22;4886581;28;104200;-76
2023/12/30 10:43:56;;;;;;;;;10.75;9.00;;;;;-143.90;100.00;75529.91;4887440;28;104319;-74
2023/12/30 10:46:25;;;;;;;;;13.00;11.25;;;;;-143.90;100.00;75552.63;4889073;28;102223;-73
2023/12/30 10:48:55;;;;;;;;;15.25;14.00;;;;;-143.90;100.00;75587.78;4887142;28;102019;-74
2023/12/30 10:51:25;;;;;;;;;14.75;13.00;;;;;-143.90;100.00;75602.25;4878363;28;104127;-75
2023/12/30 10:54:19;;;;;;;;;17.75;14.00;;;;;-143.90;100.00;75598.13;4883991;28;102574;-74
2023/12/30 10:57:01;;;;;;;;;19.00;14.00;;;;;-143.90;100.00;75614.66;4888184;28;102784;-74
2023/12/30 10:59:29;;;;;;;;;14.75;14.00;;;;;-143.90;100.00;75629.13;4881605;28;102242;-73
2023/12/30 11:01:56;;;;;;;;;19.75;13.50;;;;;-143.90;100.00;75622.94;4886141;28;103630;-74
2023/12/30 11:04:25;;;;;;;;;13.50;11.00;;;;;-143.90;100.00;75633.28;4886493;28;102112;-75
2023/12/30 11:06:59;;;;;;;;;8.00;7.00;;;;;-143.90;100.00;75633.28;4888351;28;103715;-74
2023/12/30 11:09:30;;;;;;;;;7.25;6.75;;;;;-143.90;100.00;75639.47;4882770;28;102186;-74